sensor_id;sensor_type;location;lat;lon;timestamp;temperature;humidity
51988;DHT22;38003;52.012;4.346;2022-07-29T00:01:09;21.80;46.30
51988;DHT22;38003;52.012;4.346;2022-07-29T00:03:45;21.80;46.50
51988;DHT22;38003;52.012;4.346;2022-07-29T00:06:14;21.70;46.80
51988;DHT22;38003;52.012;4.346;2022-07-29T00:08:42;21.70;46.30
51988;DHT22;38003;52.012;4.346;2022-07-29T00:11:10;21.70;46.20
51988;DHT22;38003;52.012;4.346;2022-07-29T00:13:38;21.70;46.20
51988;DHT22;38003;52.012;4.346;2022-07-29T00:16:06;21.70;46.30
51988;DHT22;38003;52.012;4.346;2022-07-29T00:18:34;21.70;46.30
51988;DHT22;38003;52.012;4.346;2022-07-29T00:21:02;21.60;46.40
51988;DHT22;38003;52.012;4.346;2022-07-29T00:23:33;21.60;46.30
51988;DHT22;38003;52.012;4.346;2022-07-29T00:26:02;21.50;46.50
51988;DHT22;38003;52.012;4.346;2022-07-29T00:28:30;21.50;46.50
51988;DHT22;38003;52.012;4.346;2022-07-29T00:30:58;21.60;46.50
51988;DHT22;38003;52.012;4.346;2022-07-29T00:33:26;21.60;46.50
51988;DHT22;38003;52.012;4.346;2022-07-29T00:35:54;21.70;46.50
51988;DHT22;38003;52.012;4.346;2022-07-29T00:38:22;21.50;46.50
51988;DHT22;38003;52.012;4.346;2022-07-29T00:40:52;21.50;46.60
51988;DHT22;38003;52.012;4.346;2022-07-29T00:43:20;21.50;46.50
51988;DHT22;38003;52.012;4.346;2022-07-29T00:45:48;21.40;46.60
51988;DHT22;38003;52.012;4.346;2022-07-29T00:48:15;21.40;47.00
51988;DHT22;38003;52.012;4.346;2022-07-29T00:50:43;21.50;46.90
51988;DHT22;38003;52.012;4.346;2022-07-29T00:53:11;21.40;46.80
51988;DHT22;38003;52.012;4.346;2022-07-29T00:55:39;21.40;46.90
51988;DHT22;38003;52.012;4.346;2022-07-29T00:58:11;21.30;46.90
51988;DHT22;38003;52.012;4.346;2022-07-29T01:00:39;21.60;46.90
51988;DHT22;38003;52.012;4.346;2022-07-29T01:03:11;21.40;46.90
51988;DHT22;38003;52.012;4.346;2022-07-29T01:05:39;21.40;47.00
51988;DHT22;38003;52.012;4.346;2022-07-29T01:08:18;21.30;47.10
51988;DHT22;38003;52.012;4.346;2022-07-29T01:10:47;21.30;47.00
51988;DHT22;38003;52.012;4.346;2022-07-29T01:13:16;21.30;47.00
51988;DHT22;38003;52.012;4.346;2022-07-29T01:15:49;21.20;47.50
51988;DHT22;38003;52.012;4.346;2022-07-29T01:18:22;21.20;47.50
51988;DHT22;38003;52.012;4.346;2022-07-29T01:21:18;21.20;47.50
51988;DHT22;38003;52.012;4.346;2022-07-29T01:24:19;21.20;47.50
51988;DHT22;38003;52.012;4.346;2022-07-29T01:26:58;21.10;47.70
51988;DHT22;38003;52.012;4.346;2022-07-29T01:29:30;21.10;47.70
51988;DHT22;38003;52.012;4.346;2022-07-29T01:32:07;21.20;47.70
51988;DHT22;38003;52.012;4.346;2022-07-29T01:34:58;21.00;48.10
51988;DHT22;38003;52.012;4.346;2022-07-29T01:37:32;21.00;48.30
51988;DHT22;38003;52.012;4.346;2022-07-29T01:40:05;21.00;48.30
51988;DHT22;38003;52.012;4.346;2022-07-29T01:42:38;21.00;48.20
51988;DHT22;38003;52.012;4.346;2022-07-29T01:45:12;21.00;48.00
51988;DHT22;38003;52.012;4.346;2022-07-29T01:47:46;21.00;47.90
51988;DHT22;38003;52.012;4.346;2022-07-29T01:50:17;21.10;47.90
51988;DHT22;38003;52.012;4.346;2022-07-29T01:52:52;21.00;47.90
51988;DHT22;38003;52.012;4.346;2022-07-29T01:55:25;20.90;48.20
51988;DHT22;38003;52.012;4.346;2022-07-29T01:57:56;20.90;48.60
51988;DHT22;38003;52.012;4.346;2022-07-29T02:00:27;20.90;48.30
51988;DHT22;38003;52.012;4.346;2022-07-29T02:02:59;20.90;48.60
51988;DHT22;38003;52.012;4.346;2022-07-29T02:05:30;20.90;48.50
51988;DHT22;38003;52.012;4.346;2022-07-29T02:08:00;20.80;48.50
51988;DHT22;38003;52.012;4.346;2022-07-29T02:10:31;20.80;48.40
51988;DHT22;38003;52.012;4.346;2022-07-29T02:13:01;20.90;48.50
51988;DHT22;38003;52.012;4.346;2022-07-29T02:15:33;20.90;48.50
51988;DHT22;38003;52.012;4.346;2022-07-29T02:18:06;20.90;48.60
51988;DHT22;38003;52.012;4.346;2022-07-29T02:20:36;20.90;48.50
51988;DHT22;38003;52.012;4.346;2022-07-29T02:23:06;20.80;48.60
51988;DHT22;38003;52.012;4.346;2022-07-29T02:25:37;20.80;48.60
51988;DHT22;38003;52.012;4.346;2022-07-29T02:28:06;20.80;48.80
51988;DHT22;38003;52.012;4.346;2022-07-29T02:30:40;20.80;49.00
51988;DHT22;38003;52.012;4.346;2022-07-29T02:33:12;20.90;49.10
51988;DHT22;38003;52.012;4.346;2022-07-29T02:35:41;20.80;49.10
51988;DHT22;38003;52.012;4.346;2022-07-29T02:38:12;20.70;49.00
51988;DHT22;38003;52.012;4.346;2022-07-29T02:41:01;20.70;50.10
51988;DHT22;38003;52.012;4.346;2022-07-29T02:43:31;20.70;48.90
51988;DHT22;38003;52.012;4.346;2022-07-29T02:46:03;20.70;48.90
51988;DHT22;38003;52.012;4.346;2022-07-29T02:48:58;20.70;49.00
51988;DHT22;38003;52.012;4.346;2022-07-29T02:51:32;20.60;49.20
51988;DHT22;38003;52.012;4.346;2022-07-29T02:54:14;20.50;49.10
51988;DHT22;38003;52.012;4.346;2022-07-29T02:56:46;20.60;49.00
51988;DHT22;38003;52.012;4.346;2022-07-29T02:59:18;20.60;49.00
51988;DHT22;38003;52.012;4.346;2022-07-29T03:01:49;20.60;49.10
51988;DHT22;38003;52.012;4.346;2022-07-29T03:04:19;20.60;49.00
51988;DHT22;38003;52.012;4.346;2022-07-29T03:06:49;20.70;49.10
51988;DHT22;38003;52.012;4.346;2022-07-29T03:09:17;21.00;49.20
51988;DHT22;38003;52.012;4.346;2022-07-29T03:11:46;20.60;49.10
51988;DHT22;38003;52.012;4.346;2022-07-29T03:14:17;20.50;49.20
51988;DHT22;38003;52.012;4.346;2022-07-29T03:16:49;20.70;49.30
51988;DHT22;38003;52.012;4.346;2022-07-29T03:19:18;20.50;49.20
51988;DHT22;38003;52.012;4.346;2022-07-29T03:21:47;20.60;48.90
51988;DHT22;38003;52.012;4.346;2022-07-29T03:24:25;20.50;49.20
51988;DHT22;38003;52.012;4.346;2022-07-29T03:26:55;20.60;49.20
51988;DHT22;38003;52.012;4.346;2022-07-29T03:29:23;20.60;49.10
51988;DHT22;38003;52.012;4.346;2022-07-29T03:32:01;20.50;49.00
51988;DHT22;38003;52.012;4.346;2022-07-29T03:34:35;20.50;49.20
51988;DHT22;38003;52.012;4.346;2022-07-29T03:37:03;20.50;49.00
51988;DHT22;38003;52.012;4.346;2022-07-29T03:39:36;20.50;49.30
51988;DHT22;38003;52.012;4.346;2022-07-29T03:42:07;20.50;49.30
51988;DHT22;38003;52.012;4.346;2022-07-29T03:44:37;20.50;48.90
51988;DHT22;38003;52.012;4.346;2022-07-29T03:47:09;20.50;49.40
51988;DHT22;38003;52.012;4.346;2022-07-29T03:49:39;20.50;49.20
51988;DHT22;38003;52.012;4.346;2022-07-29T03:52:08;20.50;49.30
51988;DHT22;38003;52.012;4.346;2022-07-29T03:54:36;20.60;49.40
51988;DHT22;38003;52.012;4.346;2022-07-29T03:57:06;20.40;49.30
51988;DHT22;38003;52.012;4.346;2022-07-29T03:59:35;20.40;49.40
51988;DHT22;38003;52.012;4.346;2022-07-29T04:02:05;20.70;49.70
51988;DHT22;38003;52.012;4.346;2022-07-29T04:04:37;20.50;49.50
51988;DHT22;38003;52.012;4.346;2022-07-29T04:07:05;20.40;49.50
51988;DHT22;38003;52.012;4.346;2022-07-29T04:09:33;20.40;49.70
51988;DHT22;38003;52.012;4.346;2022-07-29T04:12:01;20.50;49.40
51988;DHT22;38003;52.012;4.346;2022-07-29T04:14:30;20.40;49.20
51988;DHT22;38003;52.012;4.346;2022-07-29T04:16:59;20.40;49.40
51988;DHT22;38003;52.012;4.346;2022-07-29T04:19:27;20.50;49.20
51988;DHT22;38003;52.012;4.346;2022-07-29T04:21:56;20.40;49.30
51988;DHT22;38003;52.012;4.346;2022-07-29T04:24:24;21.10;49.80
51988;DHT22;38003;52.012;4.346;2022-07-29T04:26:52;20.40;49.40
51988;DHT22;38003;52.012;4.346;2022-07-29T04:29:20;20.40;49.50
51988;DHT22;38003;52.012;4.346;2022-07-29T04:31:48;20.40;49.30
51988;DHT22;38003;52.012;4.346;2022-07-29T04:34:16;20.40;49.50
51988;DHT22;38003;52.012;4.346;2022-07-29T04:36:45;20.40;49.60
51988;DHT22;38003;52.012;4.346;2022-07-29T04:39:14;20.40;49.50
51988;DHT22;38003;52.012;4.346;2022-07-29T04:41:48;20.70;49.60
51988;DHT22;38003;52.012;4.346;2022-07-29T04:44:20;20.30;49.40
51988;DHT22;38003;52.012;4.346;2022-07-29T04:46:54;20.30;49.50
51988;DHT22;38003;52.012;4.346;2022-07-29T04:49:22;20.30;49.30
51988;DHT22;38003;52.012;4.346;2022-07-29T04:51:51;20.30;49.30
51988;DHT22;38003;52.012;4.346;2022-07-29T04:54:20;20.30;49.30
51988;DHT22;38003;52.012;4.346;2022-07-29T04:56:48;20.40;49.70
51988;DHT22;38003;52.012;4.346;2022-07-29T04:59:16;20.20;49.60
51988;DHT22;38003;52.012;4.346;2022-07-29T05:01:44;20.20;49.50
51988;DHT22;38003;52.012;4.346;2022-07-29T05:04:11;20.30;49.60
51988;DHT22;38003;52.012;4.346;2022-07-29T05:06:40;20.40;49.80
51988;DHT22;38003;52.012;4.346;2022-07-29T05:09:08;20.30;49.80
51988;DHT22;38003;52.012;4.346;2022-07-29T05:11:37;20.20;50.00
51988;DHT22;38003;52.012;4.346;2022-07-29T05:14:05;20.20;49.80
51988;DHT22;38003;52.012;4.346;2022-07-29T05:16:33;20.20;49.90
51988;DHT22;38003;52.012;4.346;2022-07-29T05:19:01;20.20;49.70
51988;DHT22;38003;52.012;4.346;2022-07-29T05:21:29;20.30;49.50
51988;DHT22;38003;52.012;4.346;2022-07-29T05:23:57;20.30;49.40
51988;DHT22;38003;52.012;4.346;2022-07-29T05:26:25;20.30;49.40
51988;DHT22;38003;52.012;4.346;2022-07-29T05:28:54;20.60;49.70
51988;DHT22;38003;52.012;4.346;2022-07-29T05:31:22;20.40;49.70
51988;DHT22;38003;52.012;4.346;2022-07-29T05:33:50;20.30;49.80
51988;DHT22;38003;52.012;4.346;2022-07-29T05:39:41;20.50;49.50
51988;DHT22;38003;52.012;4.346;2022-07-29T05:42:21;20.50;49.40
51988;DHT22;38003;52.012;4.346;2022-07-29T05:47:19;20.60;49.10
51988;DHT22;38003;52.012;4.346;2022-07-29T05:49:47;20.60;49.10
51988;DHT22;38003;52.012;4.346;2022-07-29T05:52:15;20.70;49.10
51988;DHT22;38003;52.012;4.346;2022-07-29T05:54:43;20.70;50.40
51988;DHT22;38003;52.012;4.346;2022-07-29T05:57:15;20.30;48.80
51988;DHT22;38003;52.012;4.346;2022-07-29T05:59:43;20.90;49.20
51988;DHT22;38003;52.012;4.346;2022-07-29T06:02:13;20.80;48.90
51988;DHT22;38003;52.012;4.346;2022-07-29T06:04:40;21.00;49.20
51988;DHT22;38003;52.012;4.346;2022-07-29T06:07:08;20.70;49.00
51988;DHT22;38003;52.012;4.346;2022-07-29T06:09:38;20.80;49.00
51988;DHT22;38003;52.012;4.346;2022-07-29T06:12:06;21.20;49.30
51988;DHT22;38003;52.012;4.346;2022-07-29T06:14:34;20.70;49.10
51988;DHT22;38003;52.012;4.346;2022-07-29T06:17:02;20.80;49.00
51988;DHT22;38003;52.012;4.346;2022-07-29T06:19:33;20.90;48.90
51988;DHT22;38003;52.012;4.346;2022-07-29T06:22:02;21.40;49.40
51988;DHT22;38003;52.012;4.346;2022-07-29T06:24:30;20.90;48.80
51988;DHT22;38003;52.012;4.346;2022-07-29T06:26:58;21.00;48.90
51988;DHT22;38003;52.012;4.346;2022-07-29T06:29:26;21.00;48.90
51988;DHT22;38003;52.012;4.346;2022-07-29T06:31:54;20.90;48.90
51988;DHT22;38003;52.012;4.346;2022-07-29T06:34:22;21.00;49.20
51988;DHT22;38003;52.012;4.346;2022-07-29T06:36:51;21.00;49.00
51988;DHT22;38003;52.012;4.346;2022-07-29T06:39:20;21.00;49.10
51988;DHT22;38003;52.012;4.346;2022-07-29T06:41:49;21.10;48.90
51988;DHT22;38003;52.012;4.346;2022-07-29T06:44:18;21.20;48.90
51988;DHT22;38003;52.012;4.346;2022-07-29T06:46:46;21.20;48.80
51988;DHT22;38003;52.012;4.346;2022-07-29T06:49:15;21.20;48.80
51988;DHT22;38003;52.012;4.346;2022-07-29T06:51:43;21.20;48.70
51988;DHT22;38003;52.012;4.346;2022-07-29T06:54:13;21.20;48.80
51988;DHT22;38003;52.012;4.346;2022-07-29T06:56:41;21.30;48.90
51988;DHT22;38003;52.012;4.346;2022-07-29T06:59:10;21.30;49.00
51988;DHT22;38003;52.012;4.346;2022-07-29T07:01:41;21.30;49.30
51988;DHT22;38003;52.012;4.346;2022-07-29T07:04:10;21.30;49.00
51988;DHT22;38003;52.012;4.346;2022-07-29T07:06:38;21.30;49.10
51988;DHT22;38003;52.012;4.346;2022-07-29T07:09:06;21.30;49.20
51988;DHT22;38003;52.012;4.346;2022-07-29T07:11:36;21.30;49.10
51988;DHT22;38003;52.012;4.346;2022-07-29T07:14:04;21.50;49.00
51988;DHT22;38003;52.012;4.346;2022-07-29T07:16:31;21.40;48.80
51988;DHT22;38003;52.012;4.346;2022-07-29T07:19:00;21.50;48.90
51988;DHT22;38003;52.012;4.346;2022-07-29T07:21:28;21.60;49.10
51988;DHT22;38003;52.012;4.346;2022-07-29T07:23:57;21.50;48.90
51988;DHT22;38003;52.012;4.346;2022-07-29T07:26:25;21.60;48.90
51988;DHT22;38003;52.012;4.346;2022-07-29T07:28:55;21.70;48.90
51988;DHT22;38003;52.012;4.346;2022-07-29T07:31:23;21.70;49.10
51988;DHT22;38003;52.012;4.346;2022-07-29T07:33:51;21.80;48.90
51988;DHT22;38003;52.012;4.346;2022-07-29T07:36:19;21.90;48.90
51988;DHT22;38003;52.012;4.346;2022-07-29T07:38:47;21.90;48.90
51988;DHT22;38003;52.012;4.346;2022-07-29T07:41:15;22.00;48.80
51988;DHT22;38003;52.012;4.346;2022-07-29T07:43:43;22.10;48.80
51988;DHT22;38003;52.012;4.346;2022-07-29T07:46:13;22.10;49.00
51988;DHT22;38003;52.012;4.346;2022-07-29T07:48:41;22.10;48.80
51988;DHT22;38003;52.012;4.346;2022-07-29T07:51:09;22.10;50.00
51988;DHT22;38003;52.012;4.346;2022-07-29T07:53:37;22.10;49.10
51988;DHT22;38003;52.012;4.346;2022-07-29T07:56:05;22.20;48.90
51988;DHT22;38003;52.012;4.346;2022-07-29T07:58:38;22.20;48.90
51988;DHT22;38003;52.012;4.346;2022-07-29T08:01:06;22.30;48.90
51988;DHT22;38003;52.012;4.346;2022-07-29T08:03:36;22.30;48.80
51988;DHT22;38003;52.012;4.346;2022-07-29T08:06:04;22.40;48.90
51988;DHT22;38003;52.012;4.346;2022-07-29T08:08:32;22.40;48.80
51988;DHT22;38003;52.012;4.346;2022-07-29T08:11:00;22.40;48.80
51988;DHT22;38003;52.012;4.346;2022-07-29T08:13:36;22.40;48.80
51988;DHT22;38003;52.012;4.346;2022-07-29T08:16:05;22.60;48.90
51988;DHT22;38003;52.012;4.346;2022-07-29T08:18:41;22.50;48.90
51988;DHT22;38003;52.012;4.346;2022-07-29T08:21:10;22.50;48.70
51988;DHT22;38003;52.012;4.346;2022-07-29T08:23:41;22.60;48.60
51988;DHT22;38003;52.012;4.346;2022-07-29T08:26:24;22.60;48.80
51988;DHT22;38003;52.012;4.346;2022-07-29T08:28:52;22.70;48.80
51988;DHT22;38003;52.012;4.346;2022-07-29T08:31:20;22.80;48.60
51988;DHT22;38003;52.012;4.346;2022-07-29T08:33:50;22.80;48.50
51988;DHT22;38003;52.012;4.346;2022-07-29T08:36:18;22.80;48.10
51988;DHT22;38003;52.012;4.346;2022-07-29T08:38:47;22.90;48.20
51988;DHT22;38003;52.012;4.346;2022-07-29T08:41:16;22.90;48.20
51988;DHT22;38003;52.012;4.346;2022-07-29T08:43:45;23.00;48.20
51988;DHT22;38003;52.012;4.346;2022-07-29T08:46:13;22.90;48.20
51988;DHT22;38003;52.012;4.346;2022-07-29T08:48:41;23.00;48.00
51988;DHT22;38003;52.012;4.346;2022-07-29T08:51:13;23.00;49.10
51988;DHT22;38003;52.012;4.346;2022-07-29T08:53:43;23.10;47.90
51988;DHT22;38003;52.012;4.346;2022-07-29T08:56:12;23.20;47.80
51988;DHT22;38003;52.012;4.346;2022-07-29T08:58:41;23.40;47.70
51988;DHT22;38003;52.012;4.346;2022-07-29T09:01:16;23.20;47.50
51988;DHT22;38003;52.012;4.346;2022-07-29T09:03:46;23.20;47.70
51988;DHT22;38003;52.012;4.346;2022-07-29T09:06:17;23.30;47.60
51988;DHT22;38003;52.012;4.346;2022-07-29T09:08:45;23.30;47.60
51988;DHT22;38003;52.012;4.346;2022-07-29T09:11:14;23.40;47.50
51988;DHT22;38003;52.012;4.346;2022-07-29T09:13:41;23.40;47.10
51988;DHT22;38003;52.012;4.346;2022-07-29T09:16:09;23.40;47.50
51988;DHT22;38003;52.012;4.346;2022-07-29T09:18:39;23.40;47.40
51988;DHT22;38003;52.012;4.346;2022-07-29T09:21:11;23.50;47.30
51988;DHT22;38003;52.012;4.346;2022-07-29T09:24:02;23.50;47.00
51988;DHT22;38003;52.012;4.346;2022-07-29T09:26:31;23.70;46.90
51988;DHT22;38003;52.012;4.346;2022-07-29T09:29:01;23.70;46.90
51988;DHT22;38003;52.012;4.346;2022-07-29T09:31:37;23.70;46.90
51988;DHT22;38003;52.012;4.346;2022-07-29T09:34:06;23.80;46.90
51988;DHT22;38003;52.012;4.346;2022-07-29T09:36:42;23.90;47.00
51988;DHT22;38003;52.012;4.346;2022-07-29T09:39:12;24.00;46.90
51988;DHT22;38003;52.012;4.346;2022-07-29T09:41:48;24.00;46.70
51988;DHT22;38003;52.012;4.346;2022-07-29T09:44:16;24.10;47.10
51988;DHT22;38003;52.012;4.346;2022-07-29T09:46:55;24.20;46.90
51988;DHT22;38003;52.012;4.346;2022-07-29T09:49:25;24.30;46.60
51988;DHT22;38003;52.012;4.346;2022-07-29T09:52:01;24.60;46.50
51988;DHT22;38003;52.012;4.346;2022-07-29T09:54:33;24.50;46.30
51988;DHT22;38003;52.012;4.346;2022-07-29T09:57:05;24.50;46.30
51988;DHT22;38003;52.012;4.346;2022-07-29T09:59:33;24.60;46.40
51988;DHT22;38003;52.012;4.346;2022-07-29T10:02:01;24.70;46.20
51988;DHT22;38003;52.012;4.346;2022-07-29T10:04:39;24.80;45.90
51988;DHT22;38003;52.012;4.346;2022-07-29T10:07:08;24.70;46.00
51988;DHT22;38003;52.012;4.346;2022-07-29T10:09:38;24.90;45.80
51988;DHT22;38003;52.012;4.346;2022-07-29T10:12:08;25.00;45.60
51988;DHT22;38003;52.012;4.346;2022-07-29T10:14:37;25.30;45.40
51988;DHT22;38003;52.012;4.346;2022-07-29T10:17:07;25.40;45.40
51988;DHT22;38003;52.012;4.346;2022-07-29T10:19:37;25.40;45.00
51988;DHT22;38003;52.012;4.346;2022-07-29T10:22:07;25.60;44.80
51988;DHT22;38003;52.012;4.346;2022-07-29T10:24:37;25.70;44.80
51988;DHT22;38003;52.012;4.346;2022-07-29T10:27:07;25.70;44.80
51988;DHT22;38003;52.012;4.346;2022-07-29T10:29:35;25.80;44.70
51988;DHT22;38003;52.012;4.346;2022-07-29T10:32:34;26.00;44.20
51988;DHT22;38003;52.012;4.346;2022-07-29T10:35:18;26.00;43.40
51988;DHT22;38003;52.012;4.346;2022-07-29T10:38:04;26.00;43.60
51988;DHT22;38003;52.012;4.346;2022-07-29T10:40:49;26.30;43.60
51988;DHT22;38003;52.012;4.346;2022-07-29T10:43:41;26.40;43.40
51988;DHT22;38003;52.012;4.346;2022-07-29T10:46:13;26.60;43.20
51988;DHT22;38003;52.012;4.346;2022-07-29T10:49:07;26.60;43.10
51988;DHT22;38003;52.012;4.346;2022-07-29T10:52:01;26.70;43.40
51988;DHT22;38003;52.012;4.346;2022-07-29T10:54:43;26.80;42.70
51988;DHT22;38003;52.012;4.346;2022-07-29T10:57:21;27.00;42.40
51988;DHT22;38003;52.012;4.346;2022-07-29T11:00:31;27.10;42.30
51988;DHT22;38003;52.012;4.346;2022-07-29T11:03:00;27.30;42.80
51988;DHT22;38003;52.012;4.346;2022-07-29T11:05:52;27.50;41.90
51988;DHT22;38003;52.012;4.346;2022-07-29T11:08:24;27.60;42.20
51988;DHT22;38003;52.012;4.346;2022-07-29T11:14:18;27.90;40.70
51988;DHT22;38003;52.012;4.346;2022-07-29T11:17:03;28.00;40.30
51988;DHT22;38003;52.012;4.346;2022-07-29T11:19:33;28.10;40.30
51988;DHT22;38003;52.012;4.346;2022-07-29T11:22:01;28.40;40.40
51988;DHT22;38003;52.012;4.346;2022-07-29T11:24:31;28.30;39.80
51988;DHT22;38003;52.012;4.346;2022-07-29T11:27:12;28.50;40.20
51988;DHT22;38003;52.012;4.346;2022-07-29T11:30:02;28.70;40.50
51988;DHT22;38003;52.012;4.346;2022-07-29T11:32:37;28.90;40.50
51988;DHT22;38003;52.012;4.346;2022-07-29T11:35:16;29.00;40.30
51988;DHT22;38003;52.012;4.346;2022-07-29T11:38:25;29.00;40.60
51988;DHT22;38003;52.012;4.346;2022-07-29T11:41:19;29.10;40.70
51988;DHT22;38003;52.012;4.346;2022-07-29T11:43:50;29.10;39.80
51988;DHT22;38003;52.012;4.346;2022-07-29T11:46:47;29.20;40.30
51988;DHT22;38003;52.012;4.346;2022-07-29T11:49:19;29.40;40.60
51988;DHT22;38003;52.012;4.346;2022-07-29T11:51:58;29.50;40.70
51988;DHT22;38003;52.012;4.346;2022-07-29T11:54:31;29.60;40.40
51988;DHT22;38003;52.012;4.346;2022-07-29T11:57:20;29.80;39.20
51988;DHT22;38003;52.012;4.346;2022-07-29T12:00:03;29.90;39.10
51988;DHT22;38003;52.012;4.346;2022-07-29T12:02:53;29.90;39.10
51988;DHT22;38003;52.012;4.346;2022-07-29T12:05:36;29.90;38.80
51988;DHT22;38003;52.012;4.346;2022-07-29T12:08:15;29.90;37.90
51988;DHT22;38003;52.012;4.346;2022-07-29T12:10:46;29.90;38.40
51988;DHT22;38003;52.012;4.346;2022-07-29T12:13:16;29.70;38.30
51988;DHT22;38003;52.012;4.346;2022-07-29T12:15:52;29.80;38.80
51988;DHT22;38003;52.012;4.346;2022-07-29T12:18:21;29.90;37.30
51988;DHT22;38003;52.012;4.346;2022-07-29T12:20:56;29.80;38.10
51988;DHT22;38003;52.012;4.346;2022-07-29T12:23:29;30.00;37.50
51988;DHT22;38003;52.012;4.346;2022-07-29T12:26:03;30.10;37.30
51988;DHT22;38003;52.012;4.346;2022-07-29T12:28:36;30.00;37.60
51988;DHT22;38003;52.012;4.346;2022-07-29T12:31:05;30.20;37.50
51988;DHT22;38003;52.012;4.346;2022-07-29T12:33:35;30.30;36.80
51988;DHT22;38003;52.012;4.346;2022-07-29T12:36:03;30.40;36.60
51988;DHT22;38003;52.012;4.346;2022-07-29T12:38:34;30.40;36.70
51988;DHT22;38003;52.012;4.346;2022-07-29T12:41:02;30.50;36.80
51988;DHT22;38003;52.012;4.346;2022-07-29T12:43:31;30.40;36.20
51988;DHT22;38003;52.012;4.346;2022-07-29T12:46:11;30.50;37.00
51988;DHT22;38003;52.012;4.346;2022-07-29T12:48:42;30.60;36.70
51988;DHT22;38003;52.012;4.346;2022-07-29T12:51:11;30.70;37.20
51988;DHT22;38003;52.012;4.346;2022-07-29T12:53:41;30.60;36.10
51988;DHT22;38003;52.012;4.346;2022-07-29T12:56:15;30.70;36.20
51988;DHT22;38003;52.012;4.346;2022-07-29T12:59:11;30.70;34.80
51988;DHT22;38003;52.012;4.346;2022-07-29T13:01:40;30.70;35.40
51988;DHT22;38003;52.012;4.346;2022-07-29T13:04:09;30.60;36.10
51988;DHT22;38003;52.012;4.346;2022-07-29T13:06:39;30.60;36.40
51988;DHT22;38003;52.012;4.346;2022-07-29T13:09:12;30.70;36.50
51988;DHT22;38003;52.012;4.346;2022-07-29T13:11:42;30.60;36.40
51988;DHT22;38003;52.012;4.346;2022-07-29T13:14:31;30.80;36.20
51988;DHT22;38003;52.012;4.346;2022-07-29T13:17:05;31.10;36.00
51988;DHT22;38003;52.012;4.346;2022-07-29T13:19:37;31.00;36.60
51988;DHT22;38003;52.012;4.346;2022-07-29T13:22:07;31.10;35.90
51988;DHT22;38003;52.012;4.346;2022-07-29T13:24:46;31.00;35.50
51988;DHT22;38003;52.012;4.346;2022-07-29T13:27:14;31.20;34.20
51988;DHT22;38003;52.012;4.346;2022-07-29T13:29:43;30.90;34.10
51988;DHT22;38003;52.012;4.346;2022-07-29T13:32:11;30.90;35.50
51988;DHT22;38003;52.012;4.346;2022-07-29T13:34:40;30.80;35.60
51988;DHT22;38003;52.012;4.346;2022-07-29T13:37:08;31.10;34.50
51988;DHT22;38003;52.012;4.346;2022-07-29T13:39:36;30.80;34.90
51988;DHT22;38003;52.012;4.346;2022-07-29T13:42:06;30.90;34.80
51988;DHT22;38003;52.012;4.346;2022-07-29T13:44:36;31.00;35.00
51988;DHT22;38003;52.012;4.346;2022-07-29T13:47:05;31.00;34.90
51988;DHT22;38003;52.012;4.346;2022-07-29T13:49:33;30.90;34.00
51988;DHT22;38003;52.012;4.346;2022-07-29T13:52:02;30.80;34.20
51988;DHT22;38003;52.012;4.346;2022-07-29T13:54:33;30.90;34.60
51988;DHT22;38003;52.012;4.346;2022-07-29T13:57:08;31.00;34.40
51988;DHT22;38003;52.012;4.346;2022-07-29T13:59:37;31.00;34.90
51988;DHT22;38003;52.012;4.346;2022-07-29T14:02:05;30.90;34.60
51988;DHT22;38003;52.012;4.346;2022-07-29T14:04:34;30.90;36.10
51988;DHT22;38003;52.012;4.346;2022-07-29T14:07:06;30.80;35.50
51988;DHT22;38003;52.012;4.346;2022-07-29T14:09:35;30.80;34.90
51988;DHT22;38003;52.012;4.346;2022-07-29T14:12:08;30.50;34.80
51988;DHT22;38003;52.012;4.346;2022-07-29T14:14:36;30.50;35.20
51988;DHT22;38003;52.012;4.346;2022-07-29T14:17:04;30.30;35.70
51988;DHT22;38003;52.012;4.346;2022-07-29T14:19:33;30.30;36.00
51988;DHT22;38003;52.012;4.346;2022-07-29T14:22:06;30.00;36.10
51988;DHT22;38003;52.012;4.346;2022-07-29T14:24:36;29.90;36.20
51988;DHT22;38003;52.012;4.346;2022-07-29T14:27:05;29.70;36.40
51988;DHT22;38003;52.012;4.346;2022-07-29T14:29:33;29.80;36.70
51988;DHT22;38003;52.012;4.346;2022-07-29T14:32:04;29.70;37.20
51988;DHT22;38003;52.012;4.346;2022-07-29T14:34:33;29.60;36.10
51988;DHT22;38003;52.012;4.346;2022-07-29T14:37:01;29.50;36.30
51988;DHT22;38003;52.012;4.346;2022-07-29T14:39:31;29.40;36.50
51988;DHT22;38003;52.012;4.346;2022-07-29T14:41:59;29.00;36.50
51988;DHT22;38003;52.012;4.346;2022-07-29T14:44:27;29.10;36.90
51988;DHT22;38003;52.012;4.346;2022-07-29T14:46:57;28.90;36.70
51988;DHT22;38003;52.012;4.346;2022-07-29T14:49:26;28.90;36.90
51988;DHT22;38003;52.012;4.346;2022-07-29T14:51:54;28.90;37.10
51988;DHT22;38003;52.012;4.346;2022-07-29T14:54:22;28.80;36.90
51988;DHT22;38003;52.012;4.346;2022-07-29T14:56:51;28.70;37.40
51988;DHT22;38003;52.012;4.346;2022-07-29T14:59:23;28.60;37.00
51988;DHT22;38003;52.012;4.346;2022-07-29T15:01:51;28.60;37.50
51988;DHT22;38003;52.012;4.346;2022-07-29T15:04:19;28.60;37.70
51988;DHT22;38003;52.012;4.346;2022-07-29T15:06:47;28.60;38.10
51988;DHT22;38003;52.012;4.346;2022-07-29T15:09:15;28.40;37.60
51988;DHT22;38003;52.012;4.346;2022-07-29T15:11:43;28.40;37.80
51988;DHT22;38003;52.012;4.346;2022-07-29T15:14:13;28.30;38.00
51988;DHT22;38003;52.012;4.346;2022-07-29T15:16:40;28.40;38.00
51988;DHT22;38003;52.012;4.346;2022-07-29T15:19:13;28.20;38.20
51988;DHT22;38003;52.012;4.346;2022-07-29T15:21:42;27.90;37.70
51988;DHT22;38003;52.012;4.346;2022-07-29T15:24:14;27.70;37.60
51988;DHT22;38003;52.012;4.346;2022-07-29T15:26:43;27.60;38.00
51988;DHT22;38003;52.012;4.346;2022-07-29T15:29:12;27.70;38.30
51988;DHT22;38003;52.012;4.346;2022-07-29T15:31:41;27.70;38.40
51988;DHT22;38003;52.012;4.346;2022-07-29T15:34:09;27.60;38.60
51988;DHT22;38003;52.012;4.346;2022-07-29T15:36:37;27.60;38.80
51988;DHT22;38003;52.012;4.346;2022-07-29T15:39:18;27.70;39.30
51988;DHT22;38003;52.012;4.346;2022-07-29T15:41:46;27.60;39.20
51988;DHT22;38003;52.012;4.346;2022-07-29T15:44:15;27.50;38.90
51988;DHT22;38003;52.012;4.346;2022-07-29T15:46:43;27.40;38.70
51988;DHT22;38003;52.012;4.346;2022-07-29T15:49:29;27.20;38.30
51988;DHT22;38003;52.012;4.346;2022-07-29T15:52:16;27.30;38.40
51988;DHT22;38003;52.012;4.346;2022-07-29T15:54:46;27.20;38.60
51988;DHT22;38003;52.012;4.346;2022-07-29T15:57:13;27.20;38.60
51988;DHT22;38003;52.012;4.346;2022-07-29T15:59:43;27.20;38.60
51988;DHT22;38003;52.012;4.346;2022-07-29T16:02:11;27.20;38.60
51988;DHT22;38003;52.012;4.346;2022-07-29T16:04:39;27.10;39.10
51988;DHT22;38003;52.012;4.346;2022-07-29T16:07:06;27.10;39.90